createdAt,value
2022-11-27T00:00:02.327Z,4.56
2022-11-27T00:01:02.312Z,4.67
2022-11-27T00:02:02.310Z,4.68
2022-11-27T00:03:02.547Z,4.56
2022-11-27T00:04:02.387Z,4.64
2022-11-27T00:05:02.247Z,4.62
2022-11-27T00:06:02.231Z,4.74
2022-11-27T00:07:02.212Z,4.79
2022-11-27T00:08:02.251Z,4.72
2022-11-27T00:09:02.183Z,4.72
2022-11-27T00:10:02.158Z,4.80
2022-11-27T00:11:02.146Z,4.86
2022-11-27T00:12:02.125Z,4.88
2022-11-27T00:13:02.112Z,4.83
2022-11-27T00:14:02.118Z,4.84
2022-11-27T00:15:02.098Z,4.80
2022-11-27T00:16:02.088Z,4.77
2022-11-27T00:17:02.047Z,4.83
2022-11-27T00:18:02.026Z,4.84
2022-11-27T00:19:02.014Z,4.93
2022-11-27T00:20:02.042Z,4.84
2022-11-27T00:21:01.980Z,4.83
2022-11-27T00:22:01.961Z,4.86
2022-11-27T00:23:01.946Z,4.87
2022-11-27T00:24:01.928Z,4.96
2022-11-27T00:25:01.918Z,4.86
2022-11-27T00:26:01.894Z,4.88
2022-11-27T00:27:01.880Z,4.96
2022-11-27T00:28:01.860Z,4.97
2022-11-27T00:29:01.847Z,4.91
2022-11-27T00:30:01.851Z,4.96
2022-11-27T00:31:01.899Z,4.88
2022-11-27T00:32:01.794Z,5.04
2022-11-27T00:33:01.787Z,5.11
2022-11-27T00:34:01.763Z,5.05
2022-11-27T00:35:01.748Z,5.19
2022-11-27T00:36:01.726Z,5.09
2022-11-27T00:37:01.713Z,5.09
2022-11-27T00:38:01.695Z,5.05
2022-11-27T00:39:01.681Z,5.04
2022-11-27T00:40:01.661Z,5.08
2022-11-27T00:41:01.649Z,5.11
2022-11-27T00:42:01.629Z,5.08
2022-11-27T00:43:01.615Z,5.01
2022-11-27T00:44:01.596Z,5.11
2022-11-27T00:45:01.582Z,4.94
2022-11-27T00:46:01.657Z,5.04
2022-11-27T00:47:01.631Z,5.11
2022-11-27T00:48:01.528Z,5.08
2022-11-27T00:49:01.518Z,5.06
2022-11-27T00:50:01.512Z,5.01
2022-11-27T00:51:01.483Z,5.14
2022-11-27T00:52:01.465Z,5.17
2022-11-27T00:53:01.454Z,5.09
2022-11-27T00:54:01.431Z,5.09
2022-11-27T00:55:01.422Z,5.05
2022-11-27T00:56:01.397Z,5.09
2022-11-27T00:57:01.384Z,5.06
2022-11-27T00:58:01.365Z,5.05
2022-11-27T00:59:01.351Z,5.08
2022-11-27T01:00:01.345Z,5.04
2022-11-27T01:01:01.319Z,5.09
2022-11-27T01:02:01.414Z,5.22
2022-11-27T01:03:01.336Z,5.22
2022-11-27T01:04:01.265Z,5.20
2022-11-27T01:05:01.252Z,5.22
2022-11-27T01:06:01.232Z,5.20
2022-11-27T01:07:01.220Z,5.27
2022-11-27T01:08:01.200Z,5.30
2022-11-27T01:09:01.187Z,5.55
2022-11-27T01:10:01.169Z,5.52
2022-11-27T01:11:01.160Z,5.69
2022-11-27T01:12:01.134Z,5.70
2022-11-27T01:13:01.122Z,5.66
2022-11-27T01:14:01.101Z,5.80
2022-11-27T01:15:01.091Z,5.74
2022-11-27T01:16:01.129Z,5.85
2022-11-27T01:17:01.057Z,5.75
2022-11-27T01:18:01.059Z,5.70
2022-11-27T01:19:01.023Z,5.92
2022-11-27T01:20:01.005Z,5.81
2022-11-27T01:21:00.990Z,5.78
2022-11-27T01:22:00.972Z,5.87
2022-11-27T01:23:00.960Z,5.96
2022-11-27T01:24:00.939Z,5.93
2022-11-27T01:25:00.925Z,5.93
2022-11-27T01:26:00.907Z,5.93
2022-11-27T01:27:00.892Z,5.87
2022-11-27T01:28:00.874Z,6.03
2022-11-27T01:29:00.961Z,6.28
2022-11-27T01:30:00.840Z,6.27
2022-11-27T01:31:00.880Z,6.39
2022-11-27T01:32:00.806Z,6.32
2022-11-27T01:33:00.796Z,6.28
2022-11-27T01:34:00.793Z,6.21
2022-11-27T01:35:00.763Z,6.24
2022-11-27T01:36:00.744Z,6.11
2022-11-27T01:37:00.730Z,6.30
2022-11-27T01:38:00.710Z,6.20
2022-11-27T01:39:00.696Z,6.19
2022-11-27T01:40:00.680Z,6.05
2022-11-27T01:41:00.662Z,6.10
2022-11-27T01:42:00.648Z,6.06
2022-11-27T01:43:00.631Z,6.03
2022-11-27T01:44:00.616Z,5.99
2022-11-27T01:45:00.596Z,6.10
2022-11-27T01:46:00.727Z,6.28
2022-11-27T01:47:00.682Z,6.13
2022-11-27T01:48:00.551Z,6.05
2022-11-27T01:49:00.531Z,6.05
2022-11-27T01:50:00.538Z,6.24
2022-11-27T01:51:00.511Z,6.08
2022-11-27T01:52:00.488Z,6.02
2022-11-27T01:53:00.467Z,6.01
2022-11-27T01:54:00.459Z,5.95
2022-11-27T01:55:00.437Z,6.13
2022-11-27T01:56:00.421Z,6.10
2022-11-27T01:57:00.403Z,6.05
2022-11-27T01:58:00.388Z,6.11
2022-11-27T01:59:00.375Z,6.30
2022-11-27T02:00:00.361Z,6.38
2022-11-27T02:01:00.337Z,6.60
2022-11-27T02:02:00.393Z,6.68
2022-11-27T02:03:00.387Z,6.64
2022-11-27T02:04:00.293Z,6.58
2022-11-27T02:05:00.273Z,6.53
2022-11-27T02:06:00.282Z,6.61
2022-11-27T02:07:00.241Z,6.33
2022-11-27T02:08:00.355Z,6.25
2022-11-27T02:09:00.207Z,6.24
2022-11-27T02:10:00.197Z,6.30
2022-11-27T02:11:00.181Z,6.40
2022-11-27T02:12:00.163Z,6.57
2022-11-27T02:13:00.142Z,6.68
2022-11-27T02:14:00.131Z,6.81
2022-11-27T02:15:00.117Z,6.87
2022-11-27T02:16:00.184Z,6.83
2022-11-27T02:17:00.084Z,6.73
2022-11-27T02:18:00.066Z,6.65
2022-11-27T02:19:00.049Z,6.60
2022-11-27T02:20:00.047Z,6.54
2022-11-27T02:21:00.015Z,6.45
2022-11-27T02:22:00.001Z,6.40
2022-11-27T02:22:59.981Z,6.50
2022-11-27T02:23:59.967Z,6.32
2022-11-27T02:24:59.948Z,6.28
2022-11-27T02:25:59.936Z,6.20
2022-11-27T02:26:59.919Z,6.17
2022-11-27T02:27:59.903Z,6.05
2022-11-27T02:28:59.884Z,6.16
2022-11-27T02:29:59.897Z,6.13
2022-11-27T02:30:59.904Z,6.06
2022-11-27T02:31:59.888Z,5.99
2022-11-27T02:32:59.819Z,6.06
2022-11-27T02:33:59.806Z,6.10
2022-11-27T02:34:59.789Z,6.08
2022-11-27T02:35:59.775Z,6.03
2022-11-27T02:36:59.755Z,6.03
2022-11-27T02:37:59.743Z,5.99
2022-11-27T02:38:59.724Z,6.13
2022-11-27T02:39:59.709Z,6.24
2022-11-27T02:40:59.691Z,6.17
2022-11-27T02:41:59.678Z,6.21
2022-11-27T02:42:59.775Z,6.21
2022-11-27T02:43:59.645Z,6.16
2022-11-27T02:44:59.626Z,6.30
2022-11-27T02:45:59.690Z,6.38
2022-11-27T02:46:59.594Z,6.40
2022-11-27T02:47:59.580Z,6.50
2022-11-27T02:48:59.561Z,6.57
2022-11-27T02:49:59.550Z,6.63
2022-11-27T02:50:59.530Z,6.69
2022-11-27T02:51:59.516Z,6.63
2022-11-27T02:52:59.498Z,6.48
2022-11-27T02:53:59.485Z,6.46
2022-11-27T02:54:59.466Z,6.45
2022-11-27T02:55:59.452Z,6.35
2022-11-27T02:56:59.444Z,6.28
2022-11-27T02:57:59.420Z,6.28
2022-11-27T02:59:05.320Z,6.25
2022-11-27T02:59:59.498Z,6.19
2022-11-27T03:00:59.368Z,6.28
2022-11-27T03:01:59.453Z,6.32
2022-11-27T03:02:59.394Z,6.45
2022-11-27T03:03:59.322Z,6.42
2022-11-27T03:04:59.303Z,6.42
2022-11-27T03:05:59.292Z,6.45
2022-11-27T03:06:59.276Z,6.46
2022-11-27T03:07:59.331Z,6.45
2022-11-27T03:08:59.239Z,6.55
2022-11-27T03:09:59.227Z,6.42
2022-11-27T03:11:59.192Z,6.38
2022-11-27T03:12:59.178Z,6.30
2022-11-27T03:13:59.157Z,6.28
2022-11-27T03:14:59.144Z,6.21
2022-11-27T03:15:59.338Z,6.19
2022-11-27T03:16:59.112Z,6.19
2022-11-27T03:17:59.660Z,6.21
2022-11-27T03:18:59.080Z,6.11
2022-11-27T03:19:59.061Z,6.16
2022-11-27T03:20:59.049Z,6.25
2022-11-27T03:21:59.028Z,6.40
2022-11-27T03:22:59.018Z,6.53
2022-11-27T03:23:58.999Z,6.60
2022-11-27T03:24:58.983Z,6.63
2022-11-27T03:25:58.970Z,6.71
2022-11-27T03:26:58.954Z,6.73
2022-11-27T03:27:58.931Z,6.86
2022-11-27T03:28:58.918Z,6.96
2022-11-27T03:29:58.900Z,7.01
2022-11-27T03:30:58.925Z,6.99
2022-11-27T03:31:58.976Z,6.93
2022-11-27T03:32:58.854Z,6.76
2022-11-27T03:33:58.834Z,6.71
2022-11-27T03:34:58.824Z,6.91
2022-11-27T03:35:58.808Z,6.81
2022-11-27T03:36:58.789Z,6.72
2022-11-27T03:37:58.768Z,6.69
2022-11-27T03:38:58.756Z,6.51
2022-11-27T03:39:58.737Z,6.45
2022-11-27T03:40:58.724Z,6.28
2022-11-27T03:41:58.709Z,6.35
2022-11-27T03:42:58.693Z,6.27
2022-11-27T03:43:58.673Z,6.24
2022-11-27T03:44:58.660Z,6.28
2022-11-27T03:45:58.641Z,6.30
2022-11-27T03:46:58.670Z,6.53
2022-11-27T03:47:58.828Z,6.60
2022-11-27T03:48:58.595Z,6.65
2022-11-27T03:49:58.576Z,6.65
2022-11-27T03:50:58.563Z,6.71
2022-11-27T03:51:58.543Z,6.58
2022-11-27T03:52:58.529Z,6.50
2022-11-27T03:53:58.510Z,6.46
2022-11-27T03:54:58.500Z,6.42
2022-11-27T03:55:58.478Z,6.39
2022-11-27T03:56:58.465Z,6.35
2022-11-27T03:57:58.446Z,6.27
2022-11-27T03:58:58.435Z,6.45
2022-11-27T03:59:58.415Z,6.33
2022-11-27T04:00:58.402Z,6.40
2022-11-27T04:01:58.472Z,6.30
2022-11-27T04:02:58.370Z,6.20
2022-11-27T04:03:58.525Z,6.13
2022-11-27T04:04:58.338Z,6.21
2022-11-27T04:05:58.319Z,6.28
2022-11-27T04:06:58.313Z,6.20
2022-11-27T04:07:58.374Z,6.20
2022-11-27T04:08:58.272Z,6.19
2022-11-27T04:09:58.254Z,6.25
2022-11-27T04:10:58.256Z,6.21
2022-11-27T04:11:58.220Z,6.11
2022-11-27T04:12:58.210Z,6.13
2022-11-27T04:13:58.190Z,6.17
2022-11-27T04:14:58.176Z,6.13
2022-11-27T04:15:58.267Z,6.13
2022-11-27T04:16:58.142Z,5.99
2022-11-27T04:17:58.126Z,5.96
2022-11-27T04:18:58.114Z,6.02
2022-11-27T04:19:58.206Z,5.93
2022-11-27T04:20:58.078Z,5.87
2022-11-27T04:21:58.059Z,5.98
2022-11-27T04:22:58.046Z,5.96
2022-11-27T04:23:58.028Z,5.98
2022-11-27T04:24:58.015Z,5.93
2022-11-27T04:25:58.001Z,5.90
2022-11-27T04:26:57.982Z,5.95
2022-11-27T04:27:57.963Z,5.96
2022-11-27T04:28:57.955Z,6.06
2022-11-27T04:29:57.930Z,6.03
2022-11-27T04:30:57.988Z,6.06
2022-11-27T04:31:57.896Z,5.95
2022-11-27T04:32:57.886Z,5.96
2022-11-27T04:33:57.866Z,5.93
2022-11-27T04:34:57.853Z,5.96
2022-11-27T04:35:57.943Z,5.88
2022-11-27T04:36:57.819Z,5.88
2022-11-27T04:37:57.802Z,5.83
2022-11-27T04:38:57.805Z,5.87
2022-11-27T04:39:57.768Z,5.78
2022-11-27T04:40:57.755Z,5.87
2022-11-27T04:41:57.735Z,5.70
2022-11-27T04:42:57.723Z,5.70
2022-11-27T04:43:57.803Z,5.87
2022-11-27T04:44:57.689Z,5.99
2022-11-27T04:45:57.677Z,5.92
2022-11-27T04:46:57.751Z,5.77
2022-11-27T04:47:57.637Z,5.92
2022-11-27T04:48:57.625Z,5.83
2022-11-27T04:49:57.607Z,5.75
2022-11-27T04:50:57.593Z,5.88
2022-11-27T04:51:57.704Z,5.80
2022-11-27T04:52:57.559Z,5.80
2022-11-27T04:53:57.541Z,5.92
2022-11-27T04:55:00.265Z,5.88
2022-11-27T04:55:57.508Z,5.98
2022-11-27T04:56:57.496Z,5.90
2022-11-27T04:57:57.476Z,5.99
2022-11-27T04:58:57.464Z,5.98
2022-11-27T04:59:57.445Z,5.78
2022-11-27T05:00:57.481Z,5.88
2022-11-27T05:01:57.411Z,5.92
2022-11-27T05:02:57.683Z,5.84
2022-11-27T05:03:57.379Z,5.81
2022-11-27T05:04:57.364Z,5.74
2022-11-27T05:05:57.362Z,5.77
2022-11-27T05:06:57.333Z,5.74
2022-11-27T05:07:57.517Z,5.75
2022-11-27T05:08:57.300Z,5.77
2022-11-27T05:09:57.281Z,5.67
2022-11-27T05:10:57.267Z,5.69
2022-11-27T05:11:57.249Z,5.62
2022-11-27T05:12:57.238Z,5.58
2022-11-27T05:13:57.214Z,5.49
2022-11-27T05:14:59.633Z,5.51
2022-11-27T05:15:57.234Z,5.44
2022-11-27T05:16:57.170Z,5.51
2022-11-27T05:17:57.151Z,5.41
2022-11-27T05:18:57.138Z,5.60
2022-11-27T05:19:57.117Z,5.52
2022-11-27T05:20:57.108Z,5.51
2022-11-27T05:21:57.085Z,5.49
2022-11-27T05:22:57.073Z,5.47
2022-11-27T05:23:57.164Z,5.52
2022-11-27T05:24:57.044Z,5.47
2022-11-27T05:25:57.022Z,5.49
2022-11-27T05:26:57.007Z,5.49
2022-11-27T05:27:56.988Z,5.47
2022-11-27T05:28:56.975Z,5.47
2022-11-27T05:29:56.956Z,5.45
2022-11-27T05:30:56.994Z,5.44
2022-11-27T05:31:56.969Z,5.47
2022-11-27T05:32:56.908Z,5.40
2022-11-27T05:33:56.891Z,5.42
2022-11-27T05:34:56.878Z,5.42
2022-11-27T05:35:56.858Z,5.45
2022-11-27T05:36:56.845Z,5.44
2022-11-27T05:37:56.824Z,5.55
2022-11-27T05:38:56.811Z,5.49
2022-11-27T05:39:56.908Z,5.44
2022-11-27T05:40:56.778Z,5.44
2022-11-27T05:41:56.758Z,5.44
2022-11-27T05:42:56.847Z,5.52
2022-11-27T05:43:56.726Z,5.49
2022-11-27T05:44:58.450Z,5.45
2022-11-27T05:45:56.696Z,5.42
2022-11-27T05:46:56.731Z,5.44
2022-11-27T05:47:56.660Z,5.47
2022-11-27T05:48:56.650Z,5.63
2022-11-27T05:49:56.631Z,5.59
2022-11-27T05:50:56.616Z,5.58
2022-11-27T05:51:56.600Z,5.69
2022-11-27T05:52:56.583Z,5.73
2022-11-27T05:53:56.576Z,5.80
2022-11-27T05:54:56.552Z,5.83
2022-11-27T05:55:56.647Z,5.74
2022-11-27T05:56:56.517Z,5.73
2022-11-27T05:57:56.519Z,5.67
2022-11-27T05:58:56.484Z,5.69
2022-11-27T05:59:56.468Z,5.66
2022-11-27T06:00:56.449Z,5.62
2022-11-27T06:01:56.473Z,5.75
2022-11-27T06:02:56.623Z,5.67
2022-11-27T06:03:56.405Z,5.66
2022-11-27T06:04:56.383Z,5.58
2022-11-27T06:05:56.371Z,5.59
2022-11-27T06:06:56.351Z,5.58
2022-11-27T06:07:56.445Z,5.60
2022-11-27T06:08:56.318Z,5.51
2022-11-27T06:09:56.307Z,5.51
2022-11-27T06:10:56.288Z,5.55
2022-11-27T06:11:56.387Z,5.51
2022-11-27T06:12:56.253Z,5.52
2022-11-27T06:13:56.239Z,5.42
2022-11-27T06:14:56.220Z,5.56
2022-11-27T06:15:56.363Z,5.63
2022-11-27T06:16:56.255Z,5.70
2022-11-27T06:17:56.175Z,5.63
2022-11-27T06:18:56.157Z,5.59
2022-11-27T06:19:56.141Z,5.56
2022-11-27T06:20:56.123Z,5.58
2022-11-27T06:21:56.110Z,5.77
2022-11-27T06:22:56.091Z,5.63
2022-11-27T06:23:56.093Z,5.73
2022-11-27T06:24:56.056Z,5.70
2022-11-27T06:25:56.045Z,5.58
2022-11-27T06:26:56.026Z,5.60
2022-11-27T06:27:56.121Z,5.56
2022-11-27T06:28:56.004Z,5.58
2022-11-27T06:29:55.979Z,5.58
2022-11-27T06:30:55.959Z,5.49
2022-11-27T06:31:56.003Z,5.52
2022-11-27T06:32:55.926Z,5.60
2022-11-27T06:33:55.917Z,5.63
2022-11-27T06:34:55.893Z,5.66
2022-11-27T06:35:55.881Z,5.75
2022-11-27T06:36:55.862Z,5.75
2022-11-27T06:37:55.848Z,5.65
2022-11-27T06:38:55.831Z,5.62
2022-11-27T06:39:55.815Z,5.58
2022-11-27T06:40:55.796Z,5.56
2022-11-27T06:41:55.784Z,5.56
2022-11-27T06:42:55.764Z,5.51
2022-11-27T06:43:55.966Z,5.56
2022-11-27T06:44:55.731Z,5.52
2022-11-27T06:45:55.824Z,5.47
2022-11-27T06:46:55.698Z,5.49
2022-11-27T06:47:55.684Z,5.56
2022-11-27T06:48:55.715Z,5.51
2022-11-27T06:49:55.652Z,5.48
2022-11-27T06:50:55.635Z,5.65
2022-11-27T06:51:55.622Z,5.58
2022-11-27T06:52:55.602Z,5.56
2022-11-27T06:53:55.592Z,5.67
2022-11-27T06:54:55.569Z,5.65
2022-11-27T06:55:55.560Z,5.65
2022-11-27T06:56:55.535Z,5.69
2022-11-27T06:57:55.521Z,5.58
2022-11-27T06:58:55.514Z,5.48
2022-11-27T06:59:55.602Z,5.69
2022-11-27T07:00:55.509Z,5.62
2022-11-27T07:01:55.485Z,5.62
2022-11-27T07:02:55.437Z,5.56
2022-11-27T07:03:55.424Z,5.62
2022-11-27T07:04:55.405Z,5.55
2022-11-27T07:05:55.394Z,5.55
2022-11-27T07:06:55.372Z,5.58
2022-11-27T07:07:55.392Z,5.56
2022-11-27T07:08:55.338Z,5.58
2022-11-27T07:09:55.325Z,5.55
2022-11-27T07:10:55.308Z,5.56
2022-11-27T07:11:55.308Z,5.65
2022-11-27T07:12:55.274Z,5.65
2022-11-27T07:13:55.260Z,5.69
2022-11-27T07:14:55.241Z,5.77
2022-11-27T07:15:55.379Z,5.70
2022-11-27T07:16:55.304Z,5.84
2022-11-27T07:17:55.195Z,5.83
2022-11-27T07:18:55.176Z,5.73
2022-11-27T07:19:55.164Z,5.95
2022-11-27T07:20:56.830Z,5.90
2022-11-27T07:21:55.132Z,5.92
2022-11-27T07:22:55.113Z,6.02
2022-11-27T07:23:55.100Z,6.11
2022-11-27T07:24:55.079Z,6.06
2022-11-27T07:25:55.065Z,6.03
2022-11-27T07:26:55.047Z,6.06
2022-11-27T07:27:55.039Z,6.03
2022-11-27T07:28:55.015Z,6.13
2022-11-27T07:29:55.000Z,6.02
2022-11-27T07:30:54.983Z,6.17
2022-11-27T07:31:55.266Z,6.28
2022-11-27T07:32:54.951Z,6.32
2022-11-27T07:33:54.936Z,6.48
2022-11-27T07:34:54.916Z,6.58
2022-11-27T07:35:54.902Z,6.48
2022-11-27T07:36:54.882Z,6.50
2022-11-27T07:37:54.868Z,6.40
2022-11-27T07:38:54.851Z,6.58
2022-11-27T07:40:02.348Z,6.45
2022-11-27T07:40:54.817Z,6.57
2022-11-27T07:41:57.249Z,6.45
2022-11-27T07:42:54.786Z,6.36
2022-11-27T07:43:54.771Z,6.42
2022-11-27T07:44:54.753Z,6.27
2022-11-27T07:45:54.786Z,6.42
2022-11-27T07:46:54.720Z,6.57
2022-11-27T07:47:54.822Z,6.57
2022-11-27T07:48:54.688Z,6.46
2022-11-27T07:49:54.674Z,6.53
2022-11-27T07:50:54.656Z,6.61
2022-11-27T07:51:54.641Z,6.73
2022-11-27T07:52:54.623Z,6.65
2022-11-27T07:53:54.609Z,6.72
2022-11-27T07:54:54.591Z,6.68
2022-11-27T07:55:54.578Z,6.61
2022-11-27T07:56:54.557Z,6.50
2022-11-27T07:57:54.557Z,6.60
2022-11-27T07:58:54.525Z,6.57
2022-11-27T07:59:54.511Z,6.65
2022-11-27T08:00:54.546Z,6.53
2022-11-27T08:01:54.480Z,6.40
2022-11-27T08:02:54.467Z,6.32
2022-11-27T08:03:54.556Z,6.43
2022-11-27T08:04:54.513Z,6.39
2022-11-27T08:05:54.415Z,6.32
2022-11-27T08:06:54.396Z,6.32
2022-11-27T08:07:54.452Z,6.27
2022-11-27T08:08:54.363Z,6.20
2022-11-27T08:09:54.350Z,6.16
2022-11-27T08:10:54.332Z,6.20
2022-11-27T08:11:54.317Z,6.16
2022-11-27T08:12:54.297Z,6.19
2022-11-27T08:13:54.285Z,6.13
2022-11-27T08:14:54.266Z,6.16
2022-11-27T08:15:54.253Z,6.17
2022-11-27T08:16:54.293Z,6.20
2022-11-27T08:17:54.220Z,6.20
2022-11-27T08:18:54.201Z,6.17
2022-11-27T08:19:54.304Z,6.20
2022-11-27T08:20:54.168Z,6.21
2022-11-27T08:21:54.164Z,6.35
2022-11-27T08:22:56.997Z,6.46
2022-11-27T08:23:54.124Z,6.50
2022-11-27T08:24:54.114Z,6.42
2022-11-27T08:25:54.090Z,6.46
2022-11-27T08:26:54.086Z,6.65
2022-11-27T08:27:54.057Z,6.57
2022-11-27T08:28:54.044Z,6.48
2022-11-27T08:29:54.027Z,6.46
2022-11-27T08:30:54.011Z,6.51
2022-11-27T08:31:54.100Z,6.57
2022-11-27T08:32:53.974Z,6.48
2022-11-27T08:33:53.968Z,6.45
2022-11-27T08:34:53.964Z,6.46
2022-11-27T08:35:54.042Z,6.40
2022-11-27T08:36:53.959Z,6.40
2022-11-27T08:37:53.898Z,6.40
2022-11-27T08:38:53.878Z,6.48
2022-11-27T08:39:53.863Z,6.57
2022-11-27T08:40:53.844Z,6.46
2022-11-27T08:41:53.834Z,6.53
2022-11-27T08:42:53.824Z,6.45
2022-11-27T08:43:53.800Z,6.46
2022-11-27T08:44:53.780Z,6.53
2022-11-27T08:45:53.892Z,6.53
2022-11-27T08:46:53.754Z,6.51
2022-11-27T08:47:53.736Z,6.48
2022-11-27T08:48:53.716Z,6.42
2022-11-27T08:49:53.702Z,6.33
2022-11-27T08:50:53.683Z,6.27
2022-11-27T08:51:53.840Z,6.28
2022-11-27T08:52:53.653Z,6.20
2022-11-27T08:53:53.639Z,6.27
2022-11-27T08:54:57.583Z,6.25
2022-11-27T08:55:53.607Z,6.33
2022-11-27T08:57:53.570Z,6.27
2022-11-27T08:58:53.559Z,6.40
2022-11-27T08:59:53.537Z,6.45
2022-11-27T09:00:53.571Z,6.45
2022-11-27T09:01:53.508Z,6.68
2022-11-27T09:02:53.494Z,6.75
2022-11-27T09:03:53.549Z,6.71
2022-11-27T09:04:53.461Z,6.60
2022-11-27T09:05:53.444Z,6.65
2022-11-27T09:06:58.124Z,6.73
2022-11-27T09:07:53.622Z,6.94
2022-11-27T09:08:53.396Z,6.96
2022-11-27T09:09:53.379Z,7.05
2022-11-27T09:10:53.366Z,7.11
2022-11-27T09:11:53.348Z,7.08
2022-11-27T09:12:53.335Z,7.08
2022-11-27T09:13:53.316Z,7.19
2022-11-27T09:14:53.302Z,7.16
2022-11-27T09:15:53.282Z,7.26
2022-11-27T09:16:53.344Z,7.24
2022-11-27T09:17:53.254Z,7.27
2022-11-27T09:18:53.239Z,7.30
2022-11-27T09:19:53.222Z,7.44
2022-11-27T09:20:53.207Z,7.39
2022-11-27T09:21:53.188Z,7.54
2022-11-27T09:22:53.176Z,7.67
2022-11-27T09:23:53.272Z,7.66
2022-11-27T09:24:53.143Z,7.67
2022-11-27T09:25:53.125Z,7.60
2022-11-27T09:26:53.128Z,7.71
2022-11-27T09:27:53.095Z,7.69
2022-11-27T09:28:53.080Z,7.66
2022-11-27T09:29:53.061Z,7.69
2022-11-27T09:30:53.051Z,7.70
2022-11-27T09:31:53.086Z,7.60
2022-11-27T09:32:53.021Z,7.60
2022-11-27T09:33:53.004Z,7.66
2022-11-27T09:34:53.019Z,7.66
2022-11-27T09:35:52.969Z,7.55
2022-11-27T09:36:52.955Z,7.57
2022-11-27T09:37:52.937Z,7.44
2022-11-27T09:38:52.926Z,7.44
2022-11-27T09:39:53.019Z,7.48
2022-11-27T09:40:52.894Z,7.47
2022-11-27T09:41:52.878Z,7.52
2022-11-27T09:42:52.863Z,7.44
2022-11-27T09:43:52.843Z,7.52
2022-11-27T09:44:52.831Z,7.58
2022-11-27T09:45:52.848Z,7.51
2022-11-27T09:46:52.801Z,7.24
2022-11-27T09:47:52.780Z,7.47
2022-11-27T09:48:52.769Z,7.45
2022-11-27T09:49:52.750Z,7.41
2022-11-27T09:50:52.736Z,7.36
2022-11-27T09:51:52.720Z,7.39
2022-11-27T09:52:52.706Z,7.42
2022-11-27T09:53:52.689Z,7.50
2022-11-27T09:54:52.987Z,7.45
2022-11-27T09:55:52.771Z,7.54
2022-11-27T09:56:52.648Z,7.57
2022-11-27T09:57:52.625Z,7.57
2022-11-27T09:58:52.611Z,7.73
2022-11-27T09:59:52.591Z,7.82
2022-11-27T10:00:52.581Z,7.96
2022-11-27T10:01:52.695Z,8.09
2022-11-27T10:02:52.651Z,7.92
2022-11-27T10:03:52.530Z,8.10
2022-11-27T10:05:13.023Z,8.21
2022-11-27T10:05:52.499Z,8.22
2022-11-27T10:06:52.488Z,8.22
2022-11-27T10:07:52.498Z,8.18
2022-11-27T10:08:52.457Z,8.17
2022-11-27T10:09:52.446Z,8.27
2022-11-27T10:10:52.430Z,8.28
2022-11-27T10:11:58.130Z,8.20
2022-11-27T10:12:52.504Z,8.28
2022-11-27T10:13:52.379Z,8.21
2022-11-27T10:14:52.361Z,8.21
2022-11-27T10:15:52.348Z,8.25
2022-11-27T10:16:52.361Z,8.20
2022-11-27T10:17:52.335Z,8.21
2022-11-27T10:18:52.300Z,8.32
2022-11-27T10:19:52.288Z,8.21
2022-11-27T10:20:52.288Z,8.29
2022-11-27T10:21:52.262Z,8.31
2022-11-27T10:22:52.241Z,8.25
2022-11-27T10:23:52.227Z,8.24
2022-11-27T10:24:52.209Z,8.27
2022-11-27T10:25:52.199Z,8.27
2022-11-27T10:26:52.180Z,8.34
2022-11-27T10:27:52.165Z,8.39
2022-11-27T10:28:52.271Z,8.31
2022-11-27T10:29:52.137Z,8.28
2022-11-27T10:30:52.120Z,8.34
2022-11-27T10:31:52.160Z,8.43
2022-11-27T10:32:56.321Z,8.25
2022-11-27T10:33:52.077Z,8.28
2022-11-27T10:34:52.060Z,8.29
2022-11-27T10:35:52.047Z,8.31
2022-11-27T10:36:52.028Z,8.29
2022-11-27T10:37:52.017Z,8.31
2022-11-27T10:38:52.002Z,8.34
2022-11-27T10:39:51.985Z,8.36
2022-11-27T10:40:51.969Z,8.36
2022-11-27T10:41:51.956Z,8.37
2022-11-27T10:42:51.941Z,8.37
2022-11-27T10:43:51.927Z,8.31
2022-11-27T10:44:52.025Z,8.29
2022-11-27T10:45:51.970Z,8.29
2022-11-27T10:46:51.879Z,8.32
2022-11-27T10:47:51.866Z,8.28
2022-11-27T10:48:51.848Z,8.32
2022-11-27T10:49:51.836Z,8.32
2022-11-27T10:50:51.822Z,8.28
2022-11-27T10:51:51.807Z,8.24
2022-11-27T10:52:52.659Z,8.22
2022-11-27T10:53:51.776Z,8.32
2022-11-27T10:54:51.758Z,8.28
2022-11-27T10:55:51.748Z,8.22
2022-11-27T10:56:51.729Z,8.24
2022-11-27T10:57:51.718Z,8.21
2022-11-27T10:58:51.700Z,8.27
2022-11-27T10:59:51.686Z,8.37
2022-11-27T11:00:51.867Z,8.55
2022-11-27T11:01:51.710Z,8.58
2022-11-27T11:02:51.639Z,8.58
2022-11-27T11:03:51.631Z,8.63
2022-11-27T11:05:09.439Z,8.57
2022-11-27T11:06:18.528Z,8.47
2022-11-27T11:06:51.581Z,8.49
2022-11-27T11:07:51.596Z,8.54
2022-11-27T11:08:51.548Z,8.54
2022-11-27T11:09:51.539Z,8.54
2022-11-27T11:10:51.521Z,8.55
2022-11-27T11:11:51.511Z,8.61
2022-11-27T11:12:51.490Z,8.58
2022-11-27T11:13:51.479Z,8.71
2022-11-27T11:14:51.461Z,8.83
2022-11-27T11:15:51.900Z,8.79
2022-11-27T11:16:51.569Z,8.78
2022-11-27T11:17:51.419Z,8.79
2022-11-27T11:18:51.401Z,8.70
2022-11-27T11:19:51.389Z,8.64
2022-11-27T11:20:51.372Z,8.65
2022-11-27T11:21:51.360Z,8.57
2022-11-27T11:22:51.342Z,8.63
2022-11-27T11:23:51.330Z,8.64
2022-11-27T11:24:51.311Z,8.63
2022-11-27T11:25:51.301Z,8.73
2022-11-27T11:26:51.282Z,8.78
2022-11-27T11:27:51.287Z,8.76
2022-11-27T11:28:51.252Z,8.71
2022-11-27T11:29:51.247Z,8.83
2022-11-27T11:30:51.231Z,8.93
2022-11-27T11:31:51.241Z,8.88
2022-11-27T11:32:51.315Z,9.03
2022-11-27T11:33:51.184Z,9.06
2022-11-27T11:34:53.989Z,9.01
2022-11-27T11:35:51.153Z,8.98
2022-11-27T11:36:51.136Z,9.06
2022-11-27T11:37:51.124Z,9.10
2022-11-27T11:38:51.110Z,9.19
2022-11-27T11:39:51.094Z,9.08
2022-11-27T11:40:51.077Z,9.17
2022-11-27T11:41:51.065Z,9.10
2022-11-27T11:42:51.048Z,9.20
2022-11-27T11:43:51.036Z,9.22
2022-11-27T11:44:51.019Z,9.19
2022-11-27T11:45:51.068Z,9.13
2022-11-27T11:46:50.992Z,9.12
2022-11-27T11:47:50.977Z,9.12
2022-11-27T11:48:51.071Z,9.13
2022-11-27T11:49:50.999Z,9.17
2022-11-27T11:50:50.932Z,9.22
2022-11-27T11:51:50.923Z,9.17
2022-11-27T11:52:50.903Z,9.24
2022-11-27T11:53:50.892Z,9.38
2022-11-27T11:54:50.876Z,9.32
2022-11-27T11:55:50.862Z,9.35
2022-11-27T11:56:50.846Z,9.44
2022-11-27T11:57:50.839Z,9.44
2022-11-27T11:58:50.816Z,9.56
2022-11-27T11:59:50.804Z,9.58
2022-11-27T12:01:19.394Z,9.55
2022-11-27T12:01:50.863Z,9.53
2022-11-27T12:02:50.760Z,9.58
2022-11-27T12:03:50.750Z,9.60
2022-11-27T12:04:50.895Z,9.62
2022-11-27T12:05:50.720Z,9.70
2022-11-27T12:06:50.702Z,9.73
2022-11-27T12:07:52.549Z,9.85
2022-11-27T12:08:50.677Z,9.88
2022-11-27T12:09:50.667Z,9.98
2022-11-27T12:10:50.647Z,9.91
2022-11-27T12:11:50.633Z,9.95
2022-11-27T12:12:50.617Z,9.95
2022-11-27T12:13:50.607Z,10.07
2022-11-27T12:14:50.590Z,10.11
2022-11-27T12:15:50.579Z,10.09
2022-11-27T12:16:50.656Z,10.04
2022-11-27T12:17:50.550Z,10.06
2022-11-27T12:18:50.535Z,9.98
2022-11-27T12:19:50.523Z,9.95
2022-11-27T12:20:50.653Z,9.98
2022-11-27T12:21:50.496Z,9.93
2022-11-27T12:22:50.482Z,9.98
2022-11-27T12:23:50.481Z,9.98
2022-11-27T12:24:50.452Z,9.92
2022-11-27T12:25:50.445Z,10.02
2022-11-27T12:26:50.429Z,9.98
2022-11-27T12:27:50.415Z,10.02
2022-11-27T12:28:55.921Z,9.98
2022-11-27T12:29:50.385Z,10.02
2022-11-27T12:30:50.367Z,9.96
2022-11-27T12:31:50.423Z,10.01
2022-11-27T12:32:50.339Z,9.99
2022-11-27T12:33:50.330Z,9.95
2022-11-27T12:34:50.315Z,9.93
2022-11-27T12:35:50.304Z,9.83
2022-11-27T12:36:50.396Z,9.80
2022-11-27T12:37:50.275Z,9.96
2022-11-27T12:38:50.259Z,9.89
2022-11-27T12:39:50.250Z,10.02
2022-11-27T12:40:50.234Z,9.98
2022-11-27T12:41:50.220Z,9.95
2022-11-27T12:42:50.204Z,9.96
2022-11-27T12:43:50.195Z,9.89
2022-11-27T12:44:50.180Z,9.93
2022-11-27T12:45:50.203Z,9.88
2022-11-27T12:46:50.149Z,9.81
2022-11-27T12:47:50.137Z,9.77
2022-11-27T12:48:50.121Z,9.67
2022-11-27T12:49:50.110Z,9.77
2022-11-27T12:50:50.092Z,9.80
2022-11-27T12:51:50.082Z,9.75
2022-11-27T12:52:50.182Z,9.78
2022-11-27T12:53:50.057Z,9.74
2022-11-27T12:54:50.038Z,9.78
2022-11-27T12:55:50.029Z,9.74
2022-11-27T12:56:50.011Z,9.73
2022-11-27T12:57:50.000Z,9.68
2022-11-27T12:58:49.984Z,9.73
2022-11-27T12:59:49.971Z,9.73
2022-11-27T13:00:50.000Z,9.73
2022-11-27T13:01:50.123Z,9.75
2022-11-27T13:02:50.024Z,9.89
2022-11-27T13:03:49.919Z,9.92
2022-11-27T13:04:49.900Z,10.02
2022-11-27T13:05:49.894Z,10.13
2022-11-27T13:06:49.871Z,10.17
2022-11-27T13:07:49.885Z,10.18
2022-11-27T13:08:52.621Z,10.16
2022-11-27T13:09:49.837Z,10.14
2022-11-27T13:10:49.820Z,10.14
2022-11-27T13:11:49.809Z,10.07
2022-11-27T13:12:49.789Z,10.04
2022-11-27T13:13:49.788Z,9.98
2022-11-27T13:14:52.632Z,9.93
2022-11-27T13:15:49.751Z,9.91
2022-11-27T13:16:49.876Z,9.81
2022-11-27T13:17:49.723Z,9.78
2022-11-27T13:18:49.706Z,9.71